createdAt,value
2019-05-29T00:04:01.279Z,99.90
2019-05-29T00:09:08.022Z,99.90
2019-05-29T00:14:22.928Z,99.90
2019-05-29T00:19:20.225Z,99.90
2019-05-29T00:24:25.315Z,99.90
2019-05-29T00:29:30.572Z,99.90
2019-05-29T00:34:35.619Z,99.90
2019-05-29T00:39:40.730Z,99.90
2019-05-29T00:44:45.734Z,99.90
2019-05-29T00:49:50.711Z,99.90
2019-05-29T00:54:55.686Z,99.90
2019-05-29T01:00:00.649Z,99.90
2019-05-29T01:05:06.633Z,99.90
2019-05-29T01:10:13.118Z,99.90
2019-05-29T01:15:19.558Z,99.90
2019-05-29T01:20:24.535Z,99.90
2019-05-29T01:25:29.505Z,99.30
2019-05-29T01:30:34.576Z,99.90
2019-05-29T01:35:39.515Z,99.90
2019-05-29T01:40:44.553Z,99.90
2019-05-29T01:45:49.510Z,99.90
2019-05-29T01:50:54.507Z,99.90
2019-05-29T01:55:59.438Z,99.90
2019-05-29T02:01:04.489Z,99.90
2019-05-29T02:06:09.538Z,99.90
2019-05-29T02:11:15.018Z,99.90
2019-05-29T02:16:20.677Z,99.90
2019-05-29T02:21:25.943Z,99.90
2019-05-29T02:26:30.966Z,99.90
2019-05-29T02:31:35.905Z,99.90
2019-05-29T02:36:40.867Z,99.90
2019-05-29T02:46:50.347Z,99.90
2019-05-29T02:51:55.329Z,99.90
2019-05-29T02:57:00.340Z,99.90
2019-05-29T03:02:05.449Z,99.90
2019-05-29T03:07:10.552Z,99.90
2019-05-29T03:12:15.515Z,99.90
2019-05-29T03:17:20.469Z,99.90
2019-05-29T03:22:26.286Z,99.90
2019-05-29T03:27:31.946Z,99.90
2019-05-29T03:32:45.688Z,99.90
2019-05-29T03:37:43.644Z,99.90
2019-05-29T03:42:48.654Z,99.90
2019-05-29T03:47:53.622Z,99.90
2019-05-29T03:52:58.575Z,99.90
2019-05-29T03:58:03.578Z,99.90
2019-05-29T04:03:08.623Z,99.90
2019-05-29T04:08:13.645Z,99.90
2019-05-29T04:13:18.823Z,99.90
2019-05-29T04:18:24.998Z,99.50
2019-05-29T04:23:34.049Z,98.80
2019-05-29T04:28:39.313Z,98.40
2019-05-29T04:33:44.262Z,98.70
2019-05-29T04:38:49.304Z,98.70
2019-05-29T04:43:57.080Z,98.30
2019-05-29T04:49:00.903Z,98.40
2019-05-29T04:54:06.071Z,98.10
2019-05-29T04:59:11.062Z,98.20
2019-05-29T05:04:15.990Z,97.90
2019-05-29T05:09:21.026Z,97.30
2019-05-29T05:14:26.049Z,98.00
2019-05-29T05:19:31.801Z,97.20
2019-05-29T05:24:40.875Z,97.00
2019-05-29T05:29:43.490Z,97.30
2019-05-29T05:34:48.504Z,96.80
2019-05-29T05:39:53.491Z,95.80
2019-05-29T05:44:58.418Z,96.20
2019-05-29T05:50:04.271Z,94.90
2019-05-29T05:55:09.486Z,94.40
2019-05-29T06:00:16.911Z,95.70
2019-05-29T06:05:21.949Z,93.50
2019-05-29T06:10:27.057Z,93.90
2019-05-29T06:15:32.378Z,93.80
2019-05-29T06:20:38.908Z,92.60
2019-05-29T06:25:44.086Z,91.80
2019-05-29T06:30:49.482Z,91.80
2019-05-29T06:35:54.524Z,90.20
2019-05-29T06:40:59.575Z,88.60
2019-05-29T06:46:05.731Z,88.50
2019-05-29T06:51:10.744Z,89.40
2019-05-29T06:56:16.674Z,88.50
2019-05-29T07:01:23.778Z,88.10
2019-05-29T07:06:29.462Z,84.80
2019-05-29T07:11:34.570Z,79.40
2019-05-29T07:16:45.254Z,81.20
2019-05-29T07:21:47.232Z,80.40
2019-05-29T07:26:52.381Z,78.90
2019-05-29T07:31:57.354Z,79.20
2019-05-29T07:37:02.403Z,78.00
2019-05-29T07:42:07.351Z,78.30
2019-05-29T07:47:12.355Z,73.90
2019-05-29T07:52:17.399Z,72.20
2019-05-29T07:57:22.438Z,71.80
2019-05-29T08:02:28.460Z,67.50
2019-05-29T08:07:33.460Z,70.00
2019-05-29T08:12:42.287Z,65.90
2019-05-29T08:17:46.205Z,72.30
2019-05-29T08:22:51.539Z,66.10
2019-05-29T08:27:56.696Z,70.70
2019-05-29T08:33:01.672Z,68.50
2019-05-29T08:38:06.799Z,70.80
2019-05-29T08:43:14.886Z,72.00
2019-05-29T08:48:19.782Z,69.30
2019-05-29T08:53:24.654Z,73.60
2019-05-29T08:58:29.754Z,74.00
2019-05-29T09:03:34.734Z,74.40
2019-05-29T09:08:39.799Z,69.90
2019-05-29T09:13:44.851Z,65.00
2019-05-29T09:18:49.817Z,67.40
2019-05-29T09:23:58.534Z,66.20
2019-05-29T09:29:01.473Z,71.20
2019-05-29T09:34:06.577Z,64.40
2019-05-29T09:39:11.698Z,65.10
2019-05-29T09:44:33.011Z,66.40
2019-05-29T09:49:23.957Z,65.20
2019-05-29T09:54:29.186Z,62.80
2019-05-29T09:59:34.232Z,67.10
2019-05-29T10:04:39.340Z,63.30
2019-05-29T10:09:44.284Z,66.90
2019-05-29T10:14:51.384Z,58.60
2019-05-29T10:19:57.190Z,60.80
2019-05-29T10:25:03.582Z,61.40
2019-05-29T10:30:09.501Z,63.30
2019-05-29T10:35:14.650Z,59.80
2019-05-29T10:40:20.260Z,60.80
2019-05-29T10:45:25.567Z,58.40
2019-05-29T10:50:30.622Z,58.90
2019-05-29T10:55:35.614Z,57.50
2019-05-29T11:00:40.723Z,59.10
2019-05-29T11:05:45.724Z,62.10
2019-05-29T11:10:52.083Z,61.00
2019-05-29T11:15:57.109Z,60.70
2019-05-29T11:21:02.194Z,61.40
2019-05-29T11:26:07.343Z,61.00
2019-05-29T11:31:12.301Z,58.80
2019-05-29T11:36:17.270Z,58.90
2019-05-29T11:41:26.382Z,64.20
2019-05-29T11:46:29.034Z,60.00
2019-05-29T11:51:34.058Z,60.20
2019-05-29T11:56:39.022Z,64.50
2019-05-29T12:01:50.162Z,61.60
2019-05-29T12:06:51.190Z,61.00
2019-05-29T12:11:56.241Z,61.00
2019-05-29T12:17:02.517Z,57.80
2019-05-29T12:22:07.916Z,60.00
2019-05-29T12:27:13.110Z,62.60
2019-05-29T12:32:21.246Z,59.60
2019-05-29T12:37:26.182Z,58.90
2019-05-29T12:42:31.298Z,55.50
2019-05-29T12:47:36.426Z,56.30
2019-05-29T12:52:43.192Z,58.80
2019-05-29T12:57:48.310Z,58.70
2019-05-29T13:02:56.173Z,58.80
2019-05-29T13:08:03.079Z,59.40
2019-05-29T13:13:11.055Z,58.20
2019-05-29T13:18:15.030Z,55.10
2019-05-29T13:23:19.983Z,58.40
2019-05-29T13:28:24.919Z,60.20
2019-05-29T13:33:29.934Z,55.40
2019-05-29T13:38:34.937Z,56.90
2019-05-29T13:43:39.951Z,52.50
2019-05-29T13:48:44.921Z,51.00
2019-05-29T13:54:02.636Z,54.00
2019-05-29T13:58:57.756Z,52.60
2019-05-29T14:04:05.124Z,53.60
2019-05-29T14:09:10.785Z,51.30
2019-05-29T14:14:15.830Z,56.30
2019-05-29T14:19:20.878Z,54.60
2019-05-29T14:24:29.730Z,54.00
2019-05-29T14:29:32.537Z,52.30
2019-05-29T14:34:37.625Z,52.70
2019-05-29T14:39:42.670Z,53.10
2019-05-29T14:44:47.708Z,53.10
2019-05-29T14:49:52.814Z,50.30
2019-05-29T14:54:57.826Z,49.60
2019-05-29T15:00:13.704Z,51.20
2019-05-29T15:05:14.715Z,50.90
2019-05-29T15:10:26.744Z,54.40
2019-05-29T15:15:26.405Z,45.80
2019-05-29T15:20:31.423Z,49.90
2019-05-29T15:25:36.455Z,43.90
2019-05-29T15:30:41.395Z,42.20
2019-05-29T15:35:46.412Z,41.00
2019-05-29T15:40:58.796Z,42.60
2019-05-29T15:46:03.969Z,39.80
2019-05-29T15:51:08.884Z,39.80
2019-05-29T15:56:25.423Z,40.40
2019-05-29T16:01:21.462Z,41.60
2019-05-29T16:06:28.638Z,37.50
2019-05-29T16:11:34.475Z,35.70
2019-05-29T16:16:39.674Z,34.60
2019-05-29T16:21:44.690Z,35.90
2019-05-29T16:26:49.591Z,34.10
2019-05-29T16:31:54.558Z,33.20
2019-05-29T16:36:59.494Z,34.80
2019-05-29T16:42:04.526Z,35.00
2019-05-29T16:47:10.643Z,32.10
2019-05-29T16:52:16.748Z,35.20
2019-05-29T16:57:23.203Z,40.70
2019-05-29T17:02:29.545Z,43.20
2019-05-29T17:07:34.567Z,46.40
2019-05-29T17:12:39.607Z,53.80
2019-05-29T17:17:44.644Z,50.60
2019-05-29T17:22:49.585Z,55.10
2019-05-29T17:27:54.562Z,56.50
2019-05-29T17:32:59.742Z,43.80
2019-05-29T17:38:05.019Z,46.40
2019-05-29T17:43:10.226Z,45.90
2019-05-29T17:48:15.512Z,50.00
2019-05-29T17:53:22.329Z,48.90
2019-05-29T17:58:27.645Z,44.80
2019-05-29T18:03:32.817Z,44.90
2019-05-29T18:08:37.918Z,44.40
2019-05-29T18:13:42.890Z,48.00
2019-05-29T18:18:48.038Z,52.70
2019-05-29T18:23:53.660Z,53.60
2019-05-29T18:28:58.909Z,75.70
2019-05-29T18:34:05.017Z,80.50
2019-05-29T18:39:10.190Z,58.80
2019-05-29T18:44:15.221Z,58.60
2019-05-29T18:49:20.409Z,64.20
2019-05-29T18:54:25.834Z,65.90
2019-05-29T18:59:31.732Z,64.40
2019-05-29T19:04:36.843Z,63.60
2019-05-29T19:09:41.917Z,65.90
2019-05-29T19:14:46.806Z,71.70
2019-05-29T19:19:51.770Z,67.20
2019-05-29T19:24:56.886Z,70.50
2019-05-29T19:30:02.005Z,73.60
2019-05-29T19:35:10.066Z,72.80
2019-05-29T19:40:15.438Z,73.50
2019-05-29T19:45:20.799Z,72.60
2019-05-29T19:50:26.703Z,76.10
2019-05-29T19:55:36.293Z,76.30
2019-05-29T20:00:39.698Z,76.50
2019-05-29T20:05:44.795Z,76.00
2019-05-29T20:10:49.905Z,78.00
2019-05-29T20:15:54.903Z,78.50
2019-05-29T20:20:59.934Z,78.70
2019-05-29T20:26:05.235Z,78.20
2019-05-29T20:31:12.067Z,74.70
2019-05-29T20:36:16.938Z,74.70
2019-05-29T20:41:21.887Z,74.60
2019-05-29T20:46:26.850Z,74.60
2019-05-29T20:51:32.803Z,77.20
2019-05-29T20:56:39.806Z,78.60
2019-05-29T21:01:47.349Z,80.60
2019-05-29T21:06:51.437Z,82.00
2019-05-29T21:11:56.369Z,79.90
2019-05-29T21:17:01.366Z,80.00
2019-05-29T21:22:07.523Z,78.50
2019-05-29T21:27:12.618Z,77.50
2019-05-29T21:32:17.546Z,76.50
2019-05-29T21:37:22.620Z,76.50
2019-05-29T21:42:27.671Z,79.00
2019-05-29T21:47:32.685Z,76.80
2019-05-29T21:52:37.707Z,78.40
2019-05-29T21:57:46.419Z,80.20
2019-05-29T22:02:49.439Z,79.10
2019-05-29T22:07:54.587Z,80.80
2019-05-29T22:13:00.659Z,81.70
2019-05-29T22:18:06.090Z,81.80
2019-05-29T22:23:11.114Z,82.30
2019-05-29T22:28:16.145Z,80.80
2019-05-29T22:33:21.175Z,81.90
2019-05-29T22:38:26.178Z,82.70
2019-05-29T22:43:31.280Z,82.90
2019-05-29T22:48:36.293Z,82.50
2019-05-29T22:53:41.230Z,83.20
2019-05-29T22:58:47.355Z,83.70
2019-05-29T23:03:54.128Z,84.40
2019-05-29T23:09:00.401Z,84.20
2019-05-29T23:14:05.626Z,84.90
2019-05-29T23:19:10.722Z,84.30
2019-05-29T23:24:15.693Z,84.90
2019-05-29T23:29:20.688Z,85.60
2019-05-29T23:34:25.651Z,85.80
2019-05-29T23:39:30.678Z,87.20
2019-05-29T23:44:35.719Z,88.30
2019-05-29T23:49:40.727Z,87.70
2019-05-29T23:54:45.607Z,88.50
